Time;durP1;ratioP1;P1;durP2;ratioP2;P2;SDS_P1;SDS_P2;PMS_P1;PMS_P2;Temp;Humidity;BMP_temperature;BMP_pressure;BME280_temperature;BME280_humidity;BME280_pressure;Samples;Min_cycle;Max_cycle;Signal;HPM_P1;HPM_P2
2024/01/20 00:00:11;;;;;;;1999.90;999.90;;;-1.10;99.90;;;;;;5074235;28;20086;-74
2024/01/20 00:02:37;;;;;;;1999.90;999.90;;;-1.10;99.90;;;;;;5074136;28;20024;-74
2024/01/20 00:05:02;;;;;;;1999.90;999.90;;;-1.20;99.90;;;;;;5074459;28;20119;-74
2024/01/20 00:07:28;;;;;;;1999.90;999.90;;;-1.20;99.90;;;;;;5074127;28;20039;-74
2024/01/20 00:09:53;;;;;;;1999.90;999.90;;;-1.20;99.90;;;;;;5074301;28;20043;-74
2024/01/20 00:12:19;;;;;;;1999.90;999.90;;;-1.20;99.90;;;;;;5074217;28;20074;-74
2024/01/20 00:14:45;;;;;;;1999.90;999.90;;;-1.20;99.90;;;;;;5074193;28;20052;-74
2024/01/20 00:17:10;;;;;;;1999.90;999.90;;;-1.20;99.90;;;;;;5073311;28;20078;-74
2024/01/20 00:19:36;;;;;;;1999.90;999.90;;;-1.20;99.90;;;;;;5073954;28;20394;-74
2024/01/20 00:22:02;;;;;;;1999.90;999.90;;;-1.20;99.90;;;;;;5073691;28;20083;-74
2024/01/20 00:24:27;;;;;;;1999.90;999.90;;;-1.10;99.90;;;;;;5074160;28;20480;-70
2024/01/20 00:26:53;;;;;;;1999.90;999.90;;;-1.00;99.90;;;;;;5074181;28;20032;-74
2024/01/20 00:29:18;;;;;;;1999.90;999.90;;;-1.00;99.90;;;;;;5073891;28;20035;-74
2024/01/20 00:31:44;;;;;;;1999.90;999.90;;;-1.10;99.90;;;;;;5073878;28;20514;-74
2024/01/20 00:34:10;;;;;;;1999.90;999.90;;;-1.00;99.90;;;;;;5073241;28;20055;-74
2024/01/20 00:36:35;;;;;;;1999.90;999.90;;;-1.00;99.90;;;;;;5073711;28;20085;-74
2024/01/20 00:39:01;;;;;;;1999.90;999.90;;;-1.00;99.90;;;;;;5073898;28;20024;-74
2024/01/20 00:41:26;;;;;;;1999.90;999.90;;;-1.00;99.90;;;;;;5073846;28;20020;-73
2024/01/20 00:43:52;;;;;;;1999.90;999.90;;;-1.00;99.90;;;;;;5073745;28;20095;-74
2024/01/20 00:46:18;;;;;;;1999.90;999.90;;;-1.10;99.90;;;;;;5073446;28;20058;-74
2024/01/20 00:48:43;;;;;;;1999.90;999.90;;;-1.10;99.90;;;;;;5073645;28;20063;-70
2024/01/20 00:51:09;;;;;;;1999.90;999.90;;;-1.10;99.90;;;;;;5077858;28;20082;-74
2024/01/20 00:53:34;;;;;;;1999.90;999.90;;;-1.10;99.90;;;;;;5081393;28;20112;-74
2024/01/20 00:56:00;;;;;;;1999.90;999.90;;;-1.20;99.90;;;;;;5073483;28;20052;-74
2024/01/20 00:58:26;;;;;;;1999.90;999.90;;;-1.20;99.90;;;;;;5073398;28;20023;-73
2024/01/20 01:00:51;;;;;;;1999.90;999.90;;;-1.20;99.90;;;;;;5072429;28;20394;-74
2024/01/20 01:03:17;;;;;;;1999.90;999.90;;;-1.20;99.90;;;;;;5072868;28;20024;-74
2024/01/20 01:05:43;;;;;;;1999.90;999.90;;;-1.20;99.90;;;;;;5073152;28;20131;-74
2024/01/20 01:08:08;;;;;;;1999.90;999.90;;;-1.20;99.90;;;;;;5073093;28;20085;-74
2024/01/20 01:10:34;;;;;;;1999.90;999.90;;;-1.20;99.90;;;;;;5073084;28;20035;-74
2024/01/20 01:13:00;;;;;;;1999.90;999.90;;;-1.20;99.90;;;;;;5073042;28;20024;-74
2024/01/20 01:15:25;;;;;;;1999.90;999.90;;;-1.20;99.90;;;;;;5072780;28;20025;-74
2024/01/20 01:17:51;;;;;;;1999.90;999.90;;;-1.20;99.90;;;;;;5073297;28;20564;-74
2024/01/20 01:20:17;;;;;;;1999.90;999.90;;;-1.20;99.90;;;;;;5073166;28;20379;-73
2024/01/20 01:22:42;;;;;;;1999.90;999.90;;;-1.20;99.90;;;;;;5072926;28;20070;-74
2024/01/20 01:25:09;;;;;;;1999.90;999.90;;;-1.10;99.90;;;;;;5073492;28;20060;-74
2024/01/20 01:27:35;;;;;;;1999.90;999.90;;;-1.10;99.90;;;;;;5055256;28;20488;-70
2024/01/20 01:30:01;;;;;;;1999.90;999.90;;;-1.20;99.90;;;;;;5072901;28;20433;-74
2024/01/20 01:32:26;;;;;;;1999.90;999.90;;;-1.20;99.90;;;;;;5072893;28;20008;-74
2024/01/20 01:34:52;;;;;;;1999.90;999.90;;;-1.20;99.90;;;;;;5072644;28;20032;-70
2024/01/20 01:37:17;;;;;;;1999.90;999.90;;;-1.20;99.90;;;;;;5072711;28;20025;-74
2024/01/20 01:39:43;;;;;;;1999.90;999.90;;;-1.10;99.90;;;;;;5073156;28;20111;-70
2024/01/20 01:42:09;;;;;;;1999.90;999.90;;;-1.10;99.90;;;;;;5072824;28;20025;-74
2024/01/20 01:44:35;;;;;;;1999.90;999.90;;;-1.10;99.90;;;;;;5072810;28;20443;-74
2024/01/20 01:47:01;;;;;;;1999.90;999.90;;;-1.20;99.90;;;;;;5073112;28;20025;-74
2024/01/20 01:49:26;;;;;;;1999.90;999.90;;;-1.20;99.90;;;;;;5072515;28;20033;-73
2024/01/20 01:51:53;;;;;;;1999.90;999.90;;;-1.20;99.90;;;;;;5082651;28;20028;-70
2024/01/20 01:54:19;;;;;;;1999.90;999.90;;;-1.30;99.90;;;;;;5074644;28;20024;-74
2024/01/20 01:56:47;;;;;;;1999.90;999.90;;;-1.30;99.90;;;;;;5072889;28;20016;-74
2024/01/20 01:59:14;;;;;;;1999.90;999.90;;;-1.40;99.90;;;;;;5072826;28;20029;-73
2024/01/20 02:01:40;;;;;;;1999.90;999.90;;;-1.40;99.90;;;;;;5071996;28;20146;-70
2024/01/20 02:04:06;;;;;;;1999.90;999.90;;;-1.40;99.90;;;;;;5072447;28;20411;-74
2024/01/20 02:06:31;;;;;;;1999.90;999.90;;;-1.30;99.90;;;;;;5072714;28;20028;-74
2024/01/20 02:08:59;;;;;;;1999.90;999.90;;;-1.30;99.90;;;;;;5072562;28;20063;-73
2024/01/20 02:11:25;;;;;;;1999.90;999.90;;;-1.30;99.90;;;;;;5054879;28;20361;-70
2024/01/20 02:13:51;;;;;;;1999.90;999.90;;;-1.30;99.90;;;;;;5072267;28;20032;-74
2024/01/20 02:16:17;;;;;;;1999.90;999.90;;;-1.30;99.90;;;;;;5072587;28;20086;-74
2024/01/20 02:18:42;;;;;;;1999.90;999.90;;;-1.30;99.90;;;;;;5072675;28;20475;-70
2024/01/20 02:21:08;;;;;;;1999.90;999.90;;;-1.40;99.90;;;;;;5057348;28;20123;-74
2024/01/20 02:23:38;;;;;;;1999.90;999.90;;;-1.40;99.90;;;;;;5058218;28;20029;-74
2024/01/20 02:26:04;;;;;;;1999.90;999.90;;;-1.40;99.90;;;;;;5076403;28;20033;-74
2024/01/20 02:28:29;;;;;;;1999.90;999.90;;;-1.40;99.90;;;;;;5076191;28;20753;-73
2024/01/20 02:30:55;;;;;;;1999.90;999.90;;;-1.40;99.90;;;;;;5058218;28;20020;-73
2024/01/20 02:33:20;;;;;;;1999.90;999.90;;;-1.30;99.90;;;;;;5076208;28;20055;-73
2024/01/20 02:35:46;;;;;;;1999.90;999.90;;;-1.40;99.90;;;;;;5076282;28;20073;-73
2024/01/20 02:38:11;;;;;;;1999.90;999.90;;;-1.40;99.90;;;;;;5075704;28;20020;-73
2024/01/20 02:40:37;;;;;;;1999.90;999.90;;;-1.30;99.90;;;;;;5076284;28;20047;-74
2024/01/20 02:43:03;;;;;;;1999.90;999.90;;;-1.30;99.90;;;;;;5075641;28;20676;-74
2024/01/20 02:45:28;;;;;;;1999.90;999.90;;;-1.40;99.90;;;;;;5075904;28;20024;-74
2024/01/20 02:47:54;;;;;;;1999.90;999.90;;;-1.30;99.90;;;;;;5076067;28;20036;-74
2024/01/20 02:50:20;;;;;;;1999.90;999.90;;;-1.20;99.90;;;;;;5075465;28;20024;-74
2024/01/20 02:52:46;;;;;;;1999.90;999.90;;;-1.20;99.90;;;;;;5086118;28;20039;-74
2024/01/20 02:55:12;;;;;;;1999.90;999.90;;;-1.20;99.90;;;;;;5076063;28;20024;-74
2024/01/20 02:57:37;;;;;;;1999.90;999.90;;;-1.20;99.90;;;;;;5075594;28;20032;-74
2024/01/20 03:00:04;;;;;;;1999.90;999.90;;;-1.20;99.90;;;;;;5075467;28;20025;-73
2024/01/20 03:02:30;;;;;;;1999.90;999.90;;;-1.20;99.90;;;;;;5075520;28;20514;-73
2024/01/20 03:05:00;;;;;;;1999.90;999.90;;;-1.20;99.90;;;;;;5056663;28;20044;-70
2024/01/20 03:07:25;;;;;;;1999.90;999.90;;;-1.20;99.90;;;;;;5075416;28;20032;-74
2024/01/20 03:09:51;;;;;;;1999.90;999.90;;;-1.20;99.90;;;;;;5075172;28;20070;-73
2024/01/20 03:12:17;;;;;;;1999.90;999.90;;;-1.30;99.90;;;;;;5075490;28;20032;-73
2024/01/20 03:14:42;;;;;;;1999.90;999.90;;;-1.30;99.90;;;;;;5075480;28;20380;-70
2024/01/20 03:17:08;;;;;;;1999.90;999.90;;;-1.20;99.90;;;;;;5075414;28;20078;-70
2024/01/20 03:19:33;;;;;;;1999.90;999.90;;;-1.40;99.90;;;;;;5075268;28;20079;-70
2024/01/20 03:21:59;;;;;;;1999.90;999.90;;;-1.30;99.90;;;;;;5075222;28;20025;-70
2024/01/20 03:24:25;;;;;;;1999.90;999.90;;;-1.30;99.90;;;;;;5075329;28;20063;-70
2024/01/20 03:26:50;;;;;;;1999.90;999.90;;;-1.40;99.90;;;;;;5075216;28;20411;-70
2024/01/20 03:29:16;;;;;;;1999.90;999.90;;;-1.40;99.90;;;;;;5075364;28;20075;-73
2024/01/20 03:31:42;;;;;;;1999.90;999.90;;;-1.40;99.90;;;;;;5073686;28;20120;-70
2024/01/20 03:34:09;;;;;;;1999.90;999.90;;;-1.50;99.90;;;;;;5074831;28;20082;-70
2024/01/20 03:36:34;;;;;;;1999.90;999.90;;;-1.50;99.90;;;;;;5075010;28;20013;-70
2024/01/20 03:39:00;;;;;;;1999.90;999.90;;;-1.50;99.90;;;;;;5074817;28;20101;-74
2024/01/20 03:41:26;;;;;;;1999.90;999.90;;;-1.50;99.90;;;;;;5074983;28;20035;-70
2024/01/20 03:43:51;;;;;;;1999.90;999.90;;;-1.50;99.90;;;;;;5074868;28;20028;-73
2024/01/20 03:46:18;;;;;;;1999.90;999.90;;;-1.50;99.90;;;;;;5074896;28;20375;-70
2024/01/20 03:48:44;;;;;;;1999.90;999.90;;;-1.60;99.90;;;;;;5074755;28;20021;-70
2024/01/20 03:51:09;;;;;;;1999.90;999.90;;;-1.60;99.90;;;;;;5078518;28;20555;-74
2024/01/20 03:53:35;;;;;;;1999.90;999.90;;;-1.60;99.90;;;;;;5082952;28;20043;-70
2024/01/20 03:56:02;;;;;;;1999.90;999.90;;;-1.50;99.90;;;;;;5074557;28;20024;-70
2024/01/20 03:58:27;;;;;;;1999.90;999.90;;;-1.50;99.90;;;;;;5074656;28;20383;-70
2024/01/20 04:00:53;;;;;;;1999.90;999.90;;;-1.50;99.90;;;;;;5073583;28;20099;-70
2024/01/20 04:03:18;;;;;;;1999.90;999.90;;;-1.50;99.90;;;;;;5074286;28;20028;-70
2024/01/20 04:05:44;;;;;;;1999.90;999.90;;;-1.50;99.90;;;;;;5074183;28;20128;-70
2024/01/20 04:08:10;;;;;;;1999.90;999.90;;;-1.50;99.90;;;;;;5074010;28;20036;-70
2024/01/20 04:10:36;;;;;;;1999.90;999.90;;;-1.60;99.90;;;;;;5074672;28;20079;-70
2024/01/20 04:13:01;;;;;;;1999.90;999.90;;;-1.60;99.90;;;;;;5074326;28;20028;-70
2024/01/20 04:15:27;;;;;;;1999.90;999.90;;;-1.60;99.90;;;;;;5074410;28;20471;-73
2024/01/20 04:17:53;;;;;;;1999.90;999.90;;;-1.60;99.90;;;;;;5074138;28;20483;-70
2024/01/20 04:20:18;;;;;;;1999.90;999.90;;;-1.70;99.90;;;;;;5074169;28;20024;-73
2024/01/20 04:22:44;;;;;;;1999.90;999.90;;;-1.70;99.90;;;;;;5074101;28;20031;-74
2024/01/20 04:25:10;;;;;;;1999.90;999.90;;;-1.80;99.90;;;;;;5074491;28;20383;-69
2024/01/20 04:27:40;;;;;;;1999.90;999.90;;;-1.80;99.90;;;;;;5073919;28;20149;-73
2024/01/20 04:30:07;;;;;;;1999.90;999.90;;;-1.80;99.90;;;;;;5074026;28;20484;-70
2024/01/20 04:32:33;;;;;;;1999.90;999.90;;;-1.80;99.90;;;;;;5073692;28;20457;-70
2024/01/20 04:34:58;;;;;;;1999.90;999.90;;;-1.80;99.90;;;;;;5073789;28;20029;-70
2024/01/20 04:37:24;;;;;;;1999.90;999.90;;;-1.90;99.90;;;;;;5073801;28;20104;-70
2024/01/20 04:39:50;;;;;;;1999.90;999.90;;;-1.90;99.90;;;;;;5074092;28;20020;-70
2024/01/20 04:42:15;;;;;;;1999.90;999.90;;;-1.90;99.90;;;;;;5073499;28;20028;-70
2024/01/20 04:44:41;;;;;;;1999.90;999.90;;;-1.90;99.90;;;;;;5073561;28;20021;-70
2024/01/20 04:47:06;;;;;;;1999.90;999.90;;;-1.90;99.90;;;;;;5073952;28;20461;-70
2024/01/20 04:49:32;;;;;;;1999.90;999.90;;;-1.90;99.90;;;;;;5073441;28;20031;-73
2024/01/20 04:52:01;;;;;;;1999.90;999.90;;;-1.90;99.90;;;;;;5083983;28;20078;-70
2024/01/20 04:54:27;;;;;;;1999.90;999.90;;;-1.90;99.90;;;;;;5074412;28;20052;-73
2024/01/20 04:56:53;;;;;;;1999.90;999.90;;;-1.90;99.90;;;;;;5073466;28;20111;-70
2024/01/20 04:59:19;;;;;;;1999.90;999.90;;;-1.90;99.90;;;;;;5073461;28;20447;-70
2024/01/20 05:01:45;;;;;;;1999.90;999.90;;;-1.90;99.90;;;;;;5073485;28;20017;-73
2024/01/20 05:04:11;;;;;;;1999.90;999.90;;;-1.90;99.90;;;;;;5073171;28;20041;-70
2024/01/20 05:06:37;;;;;;;1999.90;999.90;;;-2.00;99.90;;;;;;5073406;28;20078;-70
2024/01/20 05:09:04;;;;;;;1999.90;999.90;;;-2.00;99.90;;;;;;5072974;28;20024;-70
2024/01/20 05:11:30;;;;;;;1999.90;999.90;;;-2.10;99.90;;;;;;5073329;28;20025;-73
2024/01/20 05:13:55;;;;;;;1999.90;999.90;;;-2.10;99.90;;;;;;5073226;28;20017;-70
2024/01/20 05:16:21;;;;;;;1999.90;999.90;;;-2.10;99.90;;;;;;5073151;28;20365;-71
2024/01/20 05:18:48;;;;;;;1999.90;999.90;;;-2.10;99.90;;;;;;5072991;28;20040;-69
2024/01/20 05:21:14;;;;;;;1999.90;999.90;;;-2.10;99.90;;;;;;5055027;28;20450;-73
2024/01/20 05:23:40;;;;;;;1999.90;999.90;;;-2.10;99.90;;;;;;5077678;28;20101;-69
2024/01/20 05:26:06;;;;;;;1999.90;999.90;;;-2.10;99.90;;;;;;5080301;28;20040;-74
2024/01/20 05:28:32;;;;;;;1999.90;999.90;;;-2.20;99.90;;;;;;5073014;28;20144;-69
2024/01/20 05:30:57;;;;;;;1999.90;999.90;;;-2.20;99.90;;;;;;5072070;28;20028;-69
2024/01/20 05:33:23;;;;;;;1999.90;999.90;;;-2.30;99.90;;;;;;5072242;28;20029;-73
2024/01/20 05:35:49;;;;;;;1999.90;999.90;;;-2.30;99.90;;;;;;5073174;28;20060;-73
2024/01/20 05:38:14;;;;;;;1999.90;999.90;;;-2.40;99.90;;;;;;5073059;28;20048;-73
2024/01/20 05:40:40;;;;;;;1999.90;999.90;;;-2.40;99.90;;;;;;5072929;28;20483;-73
2024/01/20 05:43:06;;;;;;;1999.90;999.90;;;-2.40;99.90;;;;;;5073024;28;20059;-73
2024/01/20 05:45:32;;;;;;;1999.90;999.90;;;-2.40;99.90;;;;;;5072531;28;20107;-73
2024/01/20 05:47:58;;;;;;;1999.90;999.90;;;-2.40;99.90;;;;;;5072981;28;20025;-73
2024/01/20 05:50:23;;;;;;;1999.90;999.90;;;-2.40;99.90;;;;;;5074450;28;20550;-73
2024/01/20 05:52:50;;;;;;;1999.90;999.90;;;-2.40;99.90;;;;;;5083075;28;20028;-73
2024/01/20 05:55:17;;;;;;;1999.90;999.90;;;-2.40;99.90;;;;;;5074564;28;20032;-69
2024/01/20 05:57:42;;;;;;;1999.90;999.90;;;-2.40;99.90;;;;;;5076794;28;20437;-69
2024/01/20 06:00:09;;;;;;;1999.90;999.90;;;-2.40;99.90;;;;;;5076510;28;20028;-73
2024/01/20 06:02:36;;;;;;;1999.90;999.90;;;-2.40;99.90;;;;;;5076611;28;20047;-73
2024/01/20 06:05:02;;;;;;;1999.90;999.90;;;-2.40;99.90;;;;;;5076426;28;20048;-73
2024/01/20 06:07:27;;;;;;;1999.90;999.90;;;-2.50;99.90;;;;;;5076606;28;20029;-69
2024/01/20 06:09:53;;;;;;;1999.90;999.90;;;-2.50;99.90;;;;;;5076564;28;20033;-69
2024/01/20 06:12:19;;;;;;;1999.90;999.90;;;-2.50;99.90;;;;;;5076381;28;20578;-73
2024/01/20 06:14:45;;;;;;;1999.90;999.90;;;-2.50;99.90;;;;;;5058062;28;20033;-73
2024/01/20 06:17:10;;;;;;;1999.90;999.90;;;-2.50;99.90;;;;;;5076571;28;20029;-73
2024/01/20 06:19:36;;;;;;;1999.90;999.90;;;-2.50;99.90;;;;;;5076302;28;20373;-73
2024/01/20 06:22:02;;;;;;;1999.90;999.90;;;-2.50;99.90;;;;;;5076166;28;20066;-69
2024/01/20 06:24:28;;;;;;;1999.90;999.90;;;-2.50;99.90;;;;;;5076502;28;20359;-69
2024/01/20 06:26:53;;;;;;;1999.90;999.90;;;-2.50;99.90;;;;;;5082638;28;20032;-73
2024/01/20 06:29:19;;;;;;;1999.90;999.90;;;-2.50;99.90;;;;;;5082253;28;20103;-73
2024/01/20 06:31:44;;;;;;;1999.90;999.90;;;-2.60;99.90;;;;;;5058330;28;20513;-69
2024/01/20 06:34:10;;;;;;;1999.90;999.90;;;-2.60;99.90;;;;;;5075643;28;20028;-69
2024/01/20 06:36:35;;;;;;;1999.90;999.90;;;-2.60;99.90;;;;;;5076193;28;20020;-69
2024/01/20 06:39:01;;;;;;;1999.90;999.90;;;-2.60;99.90;;;;;;5076002;28;20390;-69
2024/01/20 06:41:27;;;;;;;1999.90;999.90;;;-2.60;99.90;;;;;;5076302;28;20028;-72
2024/01/20 06:43:52;;;;;;;1999.90;999.90;;;-2.60;99.90;;;;;;5076053;28;20029;-73
2024/01/20 06:46:18;;;;;;;1999.90;999.90;;;-2.60;99.90;;;;;;5075730;28;20036;-73
2024/01/20 06:48:43;;;;;;;1999.90;999.90;;;-2.60;99.90;;;;;;5075832;28;20438;-69
2024/01/20 06:51:14;;;;;;;1999.90;999.90;;;-2.60;99.90;;;;;;5079371;28;20056;-73
2024/01/20 06:53:41;;;;;;;1999.90;999.90;;;-2.60;99.90;;;;;;5083654;28;20119;-73
2024/01/20 06:56:07;;;;;;;1999.90;999.90;;;-2.50;99.90;;;;;;5075887;28;20028;-73
2024/01/20 06:58:35;;;;;;;1999.90;999.90;;;-2.50;99.90;;;;;;5075519;28;20064;-69
2024/01/20 07:01:00;;;;;;;1999.90;999.90;;;-2.50;99.90;;;;;;5074753;28;20024;-73
2024/01/20 07:03:26;;;;;;;1999.90;999.90;;;-2.50;99.90;;;;;;5075336;28;20031;-73
2024/01/20 07:05:52;;;;;;;1999.90;999.90;;;-2.50;99.90;;;;;;5074978;28;20115;-73
2024/01/20 07:08:18;;;;;;;1999.90;999.90;;;-2.50;99.90;;;;;;5075560;28;20035;-73
2024/01/20 07:10:44;;;;;;;1999.90;999.90;;;-2.50;99.90;;;;;;5075681;28;20040;-73
2024/01/20 07:13:09;;;;;;;1999.90;999.90;;;-2.60;99.90;;;;;;5075436;28;20391;-73
2024/01/20 07:15:35;;;;;;;1999.90;999.90;;;-2.60;99.90;;;;;;5075197;28;20031;-73
2024/01/20 07:18:01;;;;;;;1999.90;999.90;;;-2.60;99.90;;;;;;5075486;28;20029;-69
2024/01/20 07:20:26;;;;;;;1999.90;999.90;;;-2.60;99.90;;;;;;5075410;28;20031;-73
2024/01/20 07:22:52;;;;;;;1999.90;999.90;;;-2.60;99.90;;;;;;5057132;28;20067;-73
2024/01/20 07:25:18;;;;;;;1999.90;999.90;;;-2.60;99.90;;;;;;5075593;28;20085;-73
2024/01/20 07:27:43;;;;;;;1999.90;999.90;;;-2.60;99.90;;;;;;5080873;28;20078;-73
2024/01/20 07:30:09;;;;;;;1999.90;999.90;;;-2.60;99.90;;;;;;5093390;28;20027;-73
2024/01/20 07:32:37;;;;;;;1999.90;999.90;;;-2.60;99.90;;;;;;5085552;28;20004;-73
2024/01/20 07:35:04;;;;;;;1999.90;999.90;;;-2.60;99.90;;;;;;5074772;28;20032;-69
2024/01/20 07:37:30;;;;;;;1999.90;999.90;;;-2.70;99.90;;;;;;5075289;28;20023;-73
2024/01/20 07:39:55;;;;;;;1999.90;999.90;;;-2.70;99.90;;;;;;5075063;28;20108;-73
2024/01/20 07:42:21;;;;;;;1999.90;999.90;;;-2.70;99.90;;;;;;5074884;28;20471;-69
2024/01/20 07:44:46;;;;;;;1999.90;999.90;;;-2.70;99.90;;;;;;5075030;28;20036;-73
2024/01/20 07:47:14;;;;;;;1999.90;999.90;;;-2.70;99.90;;;;;;5074998;28;20104;-73
2024/01/20 07:49:39;;;;;;;1999.90;999.90;;;-2.70;99.90;;;;;;5074599;28;20483;-73
2024/01/20 07:52:05;;;;;;;1999.90;999.90;;;-2.60;99.90;;;;;;5067884;28;20028;-73
2024/01/20 07:54:31;;;;;;;1999.90;999.90;;;-2.70;99.90;;;;;;5075520;28;20126;-69
2024/01/20 07:56:56;;;;;;;1999.90;999.90;;;-2.70;99.90;;;;;;5078137;28;20364;-73
2024/01/20 07:59:22;;;;;;;1999.90;999.90;;;-2.60;99.90;;;;;;5083085;28;20032;-73
2024/01/20 08:01:47;;;;;;;1999.90;999.90;;;-2.60;99.90;;;;;;5074646;28;20032;-69
2024/01/20 08:04:14;;;;;;;1999.90;999.90;;;-2.60;99.90;;;;;;5074325;28;20582;-69
2024/01/20 08:06:39;;;;;;;1999.90;999.90;;;-2.60;99.90;;;;;;5074827;28;20020;-73
2024/01/20 08:09:06;;;;;;;1999.90;999.90;;;-2.50;99.90;;;;;;5074418;28;20051;-69
2024/01/20 08:11:31;;;;;;;1999.90;999.90;;;-2.50;99.90;;;;;;5074438;28;20029;-73
2024/01/20 08:13:58;;;;;;;1999.90;999.90;;;-2.40;99.90;;;;;;5074568;28;20086;-73
2024/01/20 08:16:25;;;;;;;1999.90;999.90;;;-2.40;99.90;;;;;;5074431;28;20025;-73
2024/01/20 08:18:51;;;;;;;1999.90;999.90;;;-2.30;99.90;;;;;;5073448;28;20479;-73
2024/01/20 08:21:20;;;;;;;1999.90;999.90;;;-2.20;99.90;;;;;;5074062;28;20359;-73
2024/01/20 08:23:46;;;;;;;1999.90;999.90;;;-2.10;99.90;;;;;;5074255;28;20391;-73
2024/01/20 08:26:11;;;;;;;1999.90;999.90;;;-2.00;99.90;;;;;;5074074;28;20025;-73
2024/01/20 08:28:37;;;;;;;1999.90;999.90;;;-1.90;99.90;;;;;;5074390;28;20025;-73
2024/01/20 08:31:03;;;;;;;1999.90;999.90;;;-1.80;99.90;;;;;;5073986;28;20503;-73
2024/01/20 08:33:28;;;;;;;1999.90;999.90;;;-1.70;99.90;;;;;;5073622;28;20534;-73
2024/01/20 08:35:54;;;;;;;1999.90;999.90;;;-1.60;99.90;;;;;;5073881;28;20021;-73
2024/01/20 08:38:20;;;;;;;1999.90;999.90;;;-1.50;99.90;;;;;;5073645;28;20052;-73
2024/01/20 08:40:45;;;;;;;1999.90;999.90;;;-1.40;99.90;;;;;;5073807;28;20033;-73
2024/01/20 08:43:11;;;;;;;1999.90;999.90;;;-1.30;99.90;;;;;;5074181;28;20437;-73
2024/01/20 08:45:37;;;;;;;1999.90;999.90;;;-1.00;99.90;;;;;;5073485;28;20119;-73
2024/01/20 08:48:03;;;;;;;1999.90;999.90;;;-0.30;99.90;;;;;;5073573;28;20395;-73
2024/01/20 08:50:28;;;;;;;1999.90;999.90;;;0.00;99.90;;;;;;5075446;28;20379;-74
2024/01/20 08:52:54;;;;;;;1999.90;999.90;;;0.50;99.90;;;;;;5083804;28;20028;-74
2024/01/20 08:55:20;;;;;;;1999.90;999.90;;;1.20;99.90;;;;;;5073632;28;20078;-74
2024/01/20 08:57:45;;;;;;;1999.90;999.90;;;1.50;99.90;;;;;;5073399;28;20028;-73
2024/01/20 09:00:12;;;;;;;1999.90;999.90;;;0.90;99.90;;;;;;5073060;28;20099;-74
2024/01/20 09:02:38;;;;;;;1999.90;999.90;;;0.40;99.90;;;;;;5073224;28;20021;-73
2024/01/20 09:05:04;;;;;;;1999.90;999.90;;;-0.10;99.90;;;;;;5073164;28;20591;-73
2024/01/20 09:07:29;;;;;;;1999.90;999.90;;;-0.30;99.90;;;;;;5073574;28;20107;-73
2024/01/20 09:09:56;;;;;;;1999.90;999.90;;;-0.40;99.90;;;;;;5073042;28;20103;-70
2024/01/20 09:12:22;;;;;;;1999.90;999.90;;;-0.40;99.90;;;;;;5072980;28;20028;-70
2024/01/20 09:14:48;;;;;;;1999.90;999.90;;;-0.40;99.90;;;;;;5073040;28;20035;-74
2024/01/20 09:17:13;;;;;;;1999.90;999.90;;;-0.40;99.90;;;;;;5073345;28;20016;-70
2024/01/20 09:19:39;;;;;;;1999.90;999.90;;;-0.20;99.90;;;;;;5073348;28;20025;-73
2024/01/20 09:22:04;;;;;;;1999.90;999.90;;;-0.30;99.90;;;;;;5072928;28;20035;-73
2024/01/20 09:24:30;;;;;;;1999.90;999.90;;;-0.30;99.90;;;;;;5072896;28;20460;-70
2024/01/20 09:26:55;;;;;;;1999.90;999.90;;;-0.20;99.90;;;;;;5072952;28;20499;-70
2024/01/20 09:29:21;;;;;;;1999.90;999.90;;;-0.10;99.90;;;;;;5055024;28;20077;-74
2024/01/20 09:31:47;;;;;;;1999.90;999.90;;;0.00;99.90;;;;;;5073113;28;20043;-74
2024/01/20 09:34:12;;;;;;;1999.90;999.90;;;-0.10;99.90;;;;;;5072551;28;20479;-74
2024/01/20 09:36:38;;;;;;;1999.90;999.90;;;0.00;99.90;;;;;;5073115;28;20033;-70
2024/01/20 09:39:04;;;;;;;1999.90;999.90;;;0.00;99.90;;;;;;5072695;28;20496;-70
2024/01/20 09:41:30;;;;;;;1999.90;999.90;;;0.10;99.90;;;;;;5072623;28;20020;-73
2024/01/20 09:43:56;;;;;;;1999.90;999.90;;;0.10;99.90;;;;;;5072349;28;20103;-73
2024/01/20 09:46:22;;;;;;;1999.90;999.90;;;0.00;99.90;;;;;;5072552;28;20066;-70
2024/01/20 09:48:54;;;;;;;1999.90;999.90;;;0.20;99.90;;;;;;5072712;28;20036;-70
2024/01/20 09:51:24;;;;;;;1999.90;999.90;;;0.30;99.90;;;;;;5076982;28;20082;-73
2024/01/20 09:53:55;;;;;;;1999.90;999.90;;;0.40;99.90;;;;;;5079949;28;20048;-74
2024/01/20 09:56:21;;;;;;;1999.90;999.90;;;0.40;99.90;;;;;;5072424;28;20028;-70
2024/01/20 09:58:48;;;;;;;1999.90;999.90;;;0.50;99.90;;;;;;5078372;28;20028;-74
2024/01/20 10:01:14;;;;;;;1999.90;999.90;;;0.60;99.90;;;;;;5087572;28;20398;-70
2024/01/20 10:03:43;;;;;;;1999.90;999.90;;;0.70;99.90;;;;;;5092506;28;20043;-70
2024/01/20 10:06:08;;;;;;;1999.90;999.90;;;0.80;99.90;;;;;;5092975;28;20044;-70
2024/01/20 10:08:34;;;;;;;1999.90;999.90;;;0.80;99.90;;;;;;5092725;28;20040;-73
2024/01/20 10:11:03;;;;;;;1999.90;999.90;;;0.70;99.90;;;;;;5092962;28;20051;-74
2024/01/20 10:13:29;;;;;;;1999.90;999.90;;;0.90;99.90;;;;;;5092987;28;20028;-70
2024/01/20 10:15:55;;;;;;;1999.90;999.90;;;1.00;99.90;;;;;;5092846;28;20028;-70
2024/01/20 10:18:21;;;;;;;1999.90;999.90;;;0.80;99.90;;;;;;5092670;28;20024;-70
2024/01/20 10:20:47;;;;;;;1999.90;999.90;;;0.90;99.90;;;;;;5092990;28;20020;-70
2024/01/20 10:23:13;;;;;;;1999.90;999.90;;;1.00;99.90;;;;;;5092217;28;20020;-70
2024/01/20 10:25:38;;;;;;;1999.90;999.90;;;1.10;99.90;;;;;;5093017;28;20039;-70
2024/01/20 10:28:04;;;;;;;1999.90;999.90;;;1.10;99.90;;;;;;5080403;28;20024;-70
2024/01/20 10:30:30;;;;;;;1999.90;999.90;;;1.30;99.90;;;;;;5081663;28;20096;-70
2024/01/20 10:32:58;;;;;;;1999.90;999.90;;;1.40;99.90;;;;;;5073028;28;20455;-74
2024/01/20 10:35:24;;;;;;;1999.90;999.90;;;1.30;99.90;;;;;;5083334;28;20378;-70
2024/01/20 10:37:50;;;;;;;1999.90;999.90;;;1.30;99.90;;;;;;5092473;28;20016;-70
2024/01/20 10:40:17;;;;;;;1999.90;999.90;;;1.40;99.90;;;;;;5092546;28;20348;-70
2024/01/20 10:42:47;;;;;;;1999.90;999.90;;;1.50;99.90;;;;;;5096306;28;20031;-74
2024/01/20 10:45:17;;;;;;;1999.90;999.90;;;1.50;99.90;;;;;;5096337;28;20027;-70
2024/01/20 10:47:58;;;;;;;1999.90;999.90;;;1.70;99.90;;;;;;5096066;28;20055;-74
2024/01/20 10:50:25;;;;;;;1999.90;999.90;;;1.70;99.90;;;;;;5092595;28;20036;-70
2024/01/20 10:52:51;;;;;;;1999.90;999.90;;;1.80;99.90;;;;;;5082488;28;20383;-70
2024/01/20 10:55:18;;;;;;;1999.90;999.90;;;1.90;99.90;;;;;;5096392;28;20065;-74
2024/01/20 10:57:48;;;;;;;1999.90;999.90;;;2.00;99.90;;;;;;5095673;28;20020;-74
2024/01/20 11:00:16;;;;;;;1999.90;999.90;;;2.00;99.90;;;;;;5085543;28;20020;-70
2024/01/20 11:02:42;;;;;;;1999.90;999.90;;;2.00;99.90;;;;;;5075750;28;20036;-70
2024/01/20 11:05:18;;;;;;;1999.90;999.90;;;1.90;99.90;;;;;;5075404;28;20083;-70
2024/01/20 11:08:04;;;;;;;1999.90;999.90;;;1.90;99.90;;;;;;5075756;28;20029;-70
2024/01/20 11:10:37;;;;;;;1999.90;999.90;;;2.00;99.90;;;;;;5075238;28;20036;-70
2024/01/20 11:13:07;;;;;;;1999.90;999.90;;;2.20;99.90;;;;;;5075257;28;20024;-70
2024/01/20 11:15:33;;;;;;;1999.90;999.90;;;2.40;99.90;;;;;;5075630;28;20037;-70
2024/01/20 11:18:00;;;;;;;1999.90;999.90;;;2.40;99.90;;;;;;5075428;28;20017;-74
2024/01/20 11:20:27;;;;;;;1999.90;999.90;;;2.40;99.90;;;;;;5075591;28;20025;-70
2024/01/20 11:22:54;;;;;;;1999.90;999.90;;;2.60;99.90;;;;;;5074951;28;20016;-70
2024/01/20 11:25:22;;;;;;;1999.90;999.90;;;2.60;99.90;;;;;;5075543;28;20115;-70
2024/01/20 11:27:55;;;;;;;1999.90;999.90;;;2.50;99.90;;;;;;5057250;28;20032;-74
2024/01/20 11:30:29;;;;;;;1999.90;999.90;;;2.50;99.90;;;;;;5056542;28;20029;-75
2024/01/20 11:32:58;;;;;;;1999.90;999.90;;;2.70;99.90;;;;;;5075095;28;20056;-74
2024/01/20 11:35:24;;;;;;;1999.90;999.90;;;2.80;99.90;;;;;;5075175;28;20077;-75
2024/01/20 11:37:50;;;;;;;1999.90;999.90;;;2.80;99.90;;;;;;5075253;28;20025;-74
2024/01/20 11:40:16;;;;;;;1999.90;999.90;;;3.10;99.90;;;;;;5075315;28;20174;-74
2024/01/20 11:42:42;;;;;;;1999.90;999.90;;;3.10;99.90;;;;;;5075242;28;20020;-71
2024/01/20 11:45:08;;;;;;;1999.90;999.90;;;3.10;99.90;;;;;;5075018;28;20027;-70
2024/01/20 11:47:34;;;;;;;1999.90;999.90;;;3.20;99.90;;;;;;5074766;28;20387;-74
2024/01/20 11:50:01;;;;;;;1999.90;999.90;;;3.20;99.90;;;;;;5075357;28;20036;-74
2024/01/20 11:52:27;;;;;;;1999.90;999.90;;;3.30;99.90;;;;;;5085621;28;20036;-74
2024/01/20 11:54:52;;;;;;;1999.90;999.90;;;3.50;99.90;;;;;;5074681;28;20052;-74